sensor_id;sensor_type;location;lat;lon;timestamp;temperature;humidity
10583;DHT22;33679;51.218;6.786;2022-10-16T00:01:41;18.20;99.90
10583;DHT22;33679;51.218;6.786;2022-10-16T00:04:09;18.10;99.90
10583;DHT22;33679;51.218;6.786;2022-10-16T00:06:36;18.10;99.90
10583;DHT22;33679;51.218;6.786;2022-10-16T00:09:11;18.10;99.90
10583;DHT22;33679;51.218;6.786;2022-10-16T00:11:40;18.10;99.90
10583;DHT22;33679;51.218;6.786;2022-10-16T00:14:10;18.20;99.90
10583;DHT22;33679;51.218;6.786;2022-10-16T00:16:38;18.20;99.90
10583;DHT22;33679;51.218;6.786;2022-10-16T00:19:06;18.10;99.90
10583;DHT22;33679;51.218;6.786;2022-10-16T00:21:34;18.20;99.90
10583;DHT22;33679;51.218;6.786;2022-10-16T00:24:04;18.20;99.90
10583;DHT22;33679;51.218;6.786;2022-10-16T00:26:33;18.20;99.90
10583;DHT22;33679;51.218;6.786;2022-10-16T00:29:03;18.10;99.90
10583;DHT22;33679;51.218;6.786;2022-10-16T00:31:31;18.10;99.90
10583;DHT22;33679;51.218;6.786;2022-10-16T00:33:58;18.10;99.90
10583;DHT22;33679;51.218;6.786;2022-10-16T00:36:26;18.10;99.90
10583;DHT22;33679;51.218;6.786;2022-10-16T00:38:57;18.00;99.90
10583;DHT22;33679;51.218;6.786;2022-10-16T00:41:28;18.00;99.90
10583;DHT22;33679;51.218;6.786;2022-10-16T00:43:57;18.00;99.90
10583;DHT22;33679;51.218;6.786;2022-10-16T00:46:28;18.10;99.90
10583;DHT22;33679;51.218;6.786;2022-10-16T00:48:59;18.10;99.90
10583;DHT22;33679;51.218;6.786;2022-10-16T00:51:32;18.00;99.90
10583;DHT22;33679;51.218;6.786;2022-10-16T00:54:00;18.00;99.90
10583;DHT22;33679;51.218;6.786;2022-10-16T00:56:29;18.00;99.90
10583;DHT22;33679;51.218;6.786;2022-10-16T00:58:56;18.00;99.90
10583;DHT22;33679;51.218;6.786;2022-10-16T01:01:27;18.00;99.90
10583;DHT22;33679;51.218;6.786;2022-10-16T01:03:56;18.00;99.90
10583;DHT22;33679;51.218;6.786;2022-10-16T01:06:27;18.00;99.90
10583;DHT22;33679;51.218;6.786;2022-10-16T01:09:10;18.00;99.90
10583;DHT22;33679;51.218;6.786;2022-10-16T01:11:44;18.00;99.90
10583;DHT22;33679;51.218;6.786;2022-10-16T01:14:30;18.00;99.90
10583;DHT22;33679;51.218;6.786;2022-10-16T01:17:06;18.00;99.90
10583;DHT22;33679;51.218;6.786;2022-10-16T01:19:50;17.90;99.90
10583;DHT22;33679;51.218;6.786;2022-10-16T01:22:20;17.90;99.90
10583;DHT22;33679;51.218;6.786;2022-10-16T01:24:49;17.80;99.90
10583;DHT22;33679;51.218;6.786;2022-10-16T01:27:21;17.90;99.90
10583;DHT22;33679;51.218;6.786;2022-10-16T01:29:54;17.90;99.90
10583;DHT22;33679;51.218;6.786;2022-10-16T01:32:31;17.90;99.90
10583;DHT22;33679;51.218;6.786;2022-10-16T01:35:02;17.80;99.90
10583;DHT22;33679;51.218;6.786;2022-10-16T01:37:35;17.90;99.90
10583;DHT22;33679;51.218;6.786;2022-10-16T01:40:07;17.80;99.90
10583;DHT22;33679;51.218;6.786;2022-10-16T01:42:41;17.90;99.90
10583;DHT22;33679;51.218;6.786;2022-10-16T01:45:12;17.90;99.90
10583;DHT22;33679;51.218;6.786;2022-10-16T01:47:40;17.90;99.90
10583;DHT22;33679;51.218;6.786;2022-10-16T01:50:09;17.90;99.90
10583;DHT22;33679;51.218;6.786;2022-10-16T01:52:40;17.90;99.90
10583;DHT22;33679;51.218;6.786;2022-10-16T01:55:11;17.90;99.90
10583;DHT22;33679;51.218;6.786;2022-10-16T01:57:47;17.80;99.90
10583;DHT22;33679;51.218;6.786;2022-10-16T02:00:18;17.80;99.90
10583;DHT22;33679;51.218;6.786;2022-10-16T02:02:48;17.80;99.90
10583;DHT22;33679;51.218;6.786;2022-10-16T02:05:20;17.70;99.90
10583;DHT22;33679;51.218;6.786;2022-10-16T02:07:49;17.80;99.90
10583;DHT22;33679;51.218;6.786;2022-10-16T02:10:19;17.80;99.90
10583;DHT22;33679;51.218;6.786;2022-10-16T02:12:53;17.80;99.90
10583;DHT22;33679;51.218;6.786;2022-10-16T02:15:22;17.80;99.90
10583;DHT22;33679;51.218;6.786;2022-10-16T02:17:53;17.70;99.90
10583;DHT22;33679;51.218;6.786;2022-10-16T02:20:25;17.70;99.90
10583;DHT22;33679;51.218;6.786;2022-10-16T02:22:54;17.70;99.90
10583;DHT22;33679;51.218;6.786;2022-10-16T02:25:26;17.70;99.90
10583;DHT22;33679;51.218;6.786;2022-10-16T02:27:59;17.70;99.90
10583;DHT22;33679;51.218;6.786;2022-10-16T02:30:33;17.70;99.90
10583;DHT22;33679;51.218;6.786;2022-10-16T02:33:06;17.70;99.90
10583;DHT22;33679;51.218;6.786;2022-10-16T02:35:37;17.80;99.90
10583;DHT22;33679;51.218;6.786;2022-10-16T02:38:05;17.80;99.90
10583;DHT22;33679;51.218;6.786;2022-10-16T02:40:34;17.80;99.90
10583;DHT22;33679;51.218;6.786;2022-10-16T02:43:04;17.80;99.90
10583;DHT22;33679;51.218;6.786;2022-10-16T02:45:32;17.80;99.90
10583;DHT22;33679;51.218;6.786;2022-10-16T02:48:01;17.80;99.90
10583;DHT22;33679;51.218;6.786;2022-10-16T02:50:31;17.80;99.90
10583;DHT22;33679;51.218;6.786;2022-10-16T02:53:01;17.80;99.90
10583;DHT22;33679;51.218;6.786;2022-10-16T02:55:29;17.80;99.90
10583;DHT22;33679;51.218;6.786;2022-10-16T02:57:57;17.80;99.90
10583;DHT22;33679;51.218;6.786;2022-10-16T03:00:25;17.80;99.90
10583;DHT22;33679;51.218;6.786;2022-10-16T03:02:54;17.80;99.90
10583;DHT22;33679;51.218;6.786;2022-10-16T03:05:22;17.80;99.90
10583;DHT22;33679;51.218;6.786;2022-10-16T03:07:52;17.80;99.90
10583;DHT22;33679;51.218;6.786;2022-10-16T03:10:19;17.80;99.90
10583;DHT22;33679;51.218;6.786;2022-10-16T03:12:46;17.80;99.90
10583;DHT22;33679;51.218;6.786;2022-10-16T03:15:15;17.70;99.90
10583;DHT22;33679;51.218;6.786;2022-10-16T03:17:46;17.70;99.90
10583;DHT22;33679;51.218;6.786;2022-10-16T03:20:15;17.80;99.90
10583;DHT22;33679;51.218;6.786;2022-10-16T03:22:44;17.80;99.90
10583;DHT22;33679;51.218;6.786;2022-10-16T03:25:17;17.80;99.90
10583;DHT22;33679;51.218;6.786;2022-10-16T03:27:45;17.80;99.90
10583;DHT22;33679;51.218;6.786;2022-10-16T03:30:16;17.70;99.90
10583;DHT22;33679;51.218;6.786;2022-10-16T03:32:45;17.80;99.90
10583;DHT22;33679;51.218;6.786;2022-10-16T03:35:15;17.70;99.90
10583;DHT22;33679;51.218;6.786;2022-10-16T03:37:42;17.70;99.90
10583;DHT22;33679;51.218;6.786;2022-10-16T03:40:10;17.70;99.90
10583;DHT22;33679;51.218;6.786;2022-10-16T03:42:37;17.70;99.90
10583;DHT22;33679;51.218;6.786;2022-10-16T03:45:05;17.70;99.90
10583;DHT22;33679;51.218;6.786;2022-10-16T03:47:35;17.70;99.90
10583;DHT22;33679;51.218;6.786;2022-10-16T03:50:04;17.70;99.90
10583;DHT22;33679;51.218;6.786;2022-10-16T03:52:32;17.60;99.90
10583;DHT22;33679;51.218;6.786;2022-10-16T03:54:59;17.60;99.90
10583;DHT22;33679;51.218;6.786;2022-10-16T03:57:26;17.60;99.90
10583;DHT22;33679;51.218;6.786;2022-10-16T03:59:54;17.60;99.90
10583;DHT22;33679;51.218;6.786;2022-10-16T04:02:21;17.60;99.90
10583;DHT22;33679;51.218;6.786;2022-10-16T04:04:48;17.60;99.90
10583;DHT22;33679;51.218;6.786;2022-10-16T04:07:18;17.50;99.90
10583;DHT22;33679;51.218;6.786;2022-10-16T04:09:45;17.50;99.90
10583;DHT22;33679;51.218;6.786;2022-10-16T04:12:12;17.50;99.90
10583;DHT22;33679;51.218;6.786;2022-10-16T04:14:40;17.40;99.90
10583;DHT22;33679;51.218;6.786;2022-10-16T04:17:07;17.40;99.90
10583;DHT22;33679;51.218;6.786;2022-10-16T04:19:34;17.30;99.90
10583;DHT22;33679;51.218;6.786;2022-10-16T04:22:02;17.30;99.90
10583;DHT22;33679;51.218;6.786;2022-10-16T04:24:30;17.30;99.90
10583;DHT22;33679;51.218;6.786;2022-10-16T04:26:57;17.20;99.90
10583;DHT22;33679;51.218;6.786;2022-10-16T04:29:25;17.20;99.90
10583;DHT22;33679;51.218;6.786;2022-10-16T04:31:52;17.20;99.90
10583;DHT22;33679;51.218;6.786;2022-10-16T04:34:19;17.20;99.90
10583;DHT22;33679;51.218;6.786;2022-10-16T04:36:47;17.10;99.90
10583;DHT22;33679;51.218;6.786;2022-10-16T04:39:15;17.10;99.90
10583;DHT22;33679;51.218;6.786;2022-10-16T04:41:44;17.10;99.90
10583;DHT22;33679;51.218;6.786;2022-10-16T04:44:11;17.10;99.90
10583;DHT22;33679;51.218;6.786;2022-10-16T04:46:38;17.10;99.90
10583;DHT22;33679;51.218;6.786;2022-10-16T04:49:05;17.10;99.90
10583;DHT22;33679;51.218;6.786;2022-10-16T04:51:34;17.10;99.90
10583;DHT22;33679;51.218;6.786;2022-10-16T04:54:04;17.10;99.90
10583;DHT22;33679;51.218;6.786;2022-10-16T04:56:31;17.10;99.90
10583;DHT22;33679;51.218;6.786;2022-10-16T04:59:06;17.10;99.90
10583;DHT22;33679;51.218;6.786;2022-10-16T05:01:34;17.10;99.90
10583;DHT22;33679;51.218;6.786;2022-10-16T05:04:01;17.10;99.90
10583;DHT22;33679;51.218;6.786;2022-10-16T05:06:28;17.10;99.90
10583;DHT22;33679;51.218;6.786;2022-10-16T05:08:55;17.20;99.90
10583;DHT22;33679;51.218;6.786;2022-10-16T05:11:22;17.20;99.90
10583;DHT22;33679;51.218;6.786;2022-10-16T05:13:49;17.20;99.90
10583;DHT22;33679;51.218;6.786;2022-10-16T05:16:18;17.20;99.90
10583;DHT22;33679;51.218;6.786;2022-10-16T05:18:45;17.20;99.90
10583;DHT22;33679;51.218;6.786;2022-10-16T05:21:12;17.20;99.90
10583;DHT22;33679;51.218;6.786;2022-10-16T05:23:39;17.10;99.90
10583;DHT22;33679;51.218;6.786;2022-10-16T05:26:06;17.10;99.90
10583;DHT22;33679;51.218;6.786;2022-10-16T05:28:33;17.10;99.90
10583;DHT22;33679;51.218;6.786;2022-10-16T05:31:04;17.10;99.90
10583;DHT22;33679;51.218;6.786;2022-10-16T05:33:34;17.10;99.90
10583;DHT22;33679;51.218;6.786;2022-10-16T05:36:02;17.10;99.90
10583;DHT22;33679;51.218;6.786;2022-10-16T05:38:29;17.10;99.90
10583;DHT22;33679;51.218;6.786;2022-10-16T05:40:56;17.10;99.90
10583;DHT22;33679;51.218;6.786;2022-10-16T05:43:24;17.10;99.90
10583;DHT22;33679;51.218;6.786;2022-10-16T05:45:55;17.10;99.90
10583;DHT22;33679;51.218;6.786;2022-10-16T05:48:23;17.10;99.90
10583;DHT22;33679;51.218;6.786;2022-10-16T05:50:58;17.10;99.90
10583;DHT22;33679;51.218;6.786;2022-10-16T05:53:28;17.10;99.90
10583;DHT22;33679;51.218;6.786;2022-10-16T05:55:56;17.10;99.90
10583;DHT22;33679;51.218;6.786;2022-10-16T05:58:29;17.10;99.90
10583;DHT22;33679;51.218;6.786;2022-10-16T06:00:58;17.10;99.90
10583;DHT22;33679;51.218;6.786;2022-10-16T06:03:26;17.10;99.90
10583;DHT22;33679;51.218;6.786;2022-10-16T06:05:53;17.00;99.90
10583;DHT22;33679;51.218;6.786;2022-10-16T06:08:24;17.10;99.90
10583;DHT22;33679;51.218;6.786;2022-10-16T06:11:01;17.10;99.90
10583;DHT22;33679;51.218;6.786;2022-10-16T06:13:28;17.10;99.90
10583;DHT22;33679;51.218;6.786;2022-10-16T06:15:59;17.10;99.90
10583;DHT22;33679;51.218;6.786;2022-10-16T06:18:29;17.10;99.90
10583;DHT22;33679;51.218;6.786;2022-10-16T06:20:59;17.10;99.90
10583;DHT22;33679;51.218;6.786;2022-10-16T06:23:28;17.00;99.90
10583;DHT22;33679;51.218;6.786;2022-10-16T06:26:04;17.10;99.90
10583;DHT22;33679;51.218;6.786;2022-10-16T06:28:31;17.10;99.90
10583;DHT22;33679;51.218;6.786;2022-10-16T06:30:59;17.10;99.90
10583;DHT22;33679;51.218;6.786;2022-10-16T06:33:27;17.10;99.90
10583;DHT22;33679;51.218;6.786;2022-10-16T06:36:02;17.20;99.90
10583;DHT22;33679;51.218;6.786;2022-10-16T06:38:32;17.20;99.90
10583;DHT22;33679;51.218;6.786;2022-10-16T06:41:00;17.20;99.90
10583;DHT22;33679;51.218;6.786;2022-10-16T06:43:29;17.20;99.90
10583;DHT22;33679;51.218;6.786;2022-10-16T06:46:00;17.20;99.90
10583;DHT22;33679;51.218;6.786;2022-10-16T06:48:28;17.20;99.90
10583;DHT22;33679;51.218;6.786;2022-10-16T06:50:58;17.30;99.90
10583;DHT22;33679;51.218;6.786;2022-10-16T06:53:26;17.30;99.90
10583;DHT22;33679;51.218;6.786;2022-10-16T06:56:06;17.30;99.90
10583;DHT22;33679;51.218;6.786;2022-10-16T06:58:34;17.40;99.90
10583;DHT22;33679;51.218;6.786;2022-10-16T07:01:01;17.40;99.90
10583;DHT22;33679;51.218;6.786;2022-10-16T07:03:29;17.40;99.90
10583;DHT22;33679;51.218;6.786;2022-10-16T07:05:56;17.50;99.90
10583;DHT22;33679;51.218;6.786;2022-10-16T07:08:23;17.50;99.90
10583;DHT22;33679;51.218;6.786;2022-10-16T07:11:00;17.50;99.90
10583;DHT22;33679;51.218;6.786;2022-10-16T07:13:29;17.60;99.90
10583;DHT22;33679;51.218;6.786;2022-10-16T07:15:57;17.60;99.90
10583;DHT22;33679;51.218;6.786;2022-10-16T07:18:24;17.60;99.90
10583;DHT22;33679;51.218;6.786;2022-10-16T07:21:03;17.60;99.90
10583;DHT22;33679;51.218;6.786;2022-10-16T07:23:31;17.60;99.90
10583;DHT22;33679;51.218;6.786;2022-10-16T07:26:00;17.60;99.90
10583;DHT22;33679;51.218;6.786;2022-10-16T07:28:27;17.50;99.90
10583;DHT22;33679;51.218;6.786;2022-10-16T07:30:59;17.50;99.90
10583;DHT22;33679;51.218;6.786;2022-10-16T07:33:26;17.50;99.90
10583;DHT22;33679;51.218;6.786;2022-10-16T07:35:54;17.50;99.90
10583;DHT22;33679;51.218;6.786;2022-10-16T07:38:22;17.50;99.90
10583;DHT22;33679;51.218;6.786;2022-10-16T07:40:56;17.50;99.90
10583;DHT22;33679;51.218;6.786;2022-10-16T07:43:25;17.60;99.90
10583;DHT22;33679;51.218;6.786;2022-10-16T07:45:52;17.60;99.90
10583;DHT22;33679;51.218;6.786;2022-10-16T07:48:21;17.60;99.90
10583;DHT22;33679;51.218;6.786;2022-10-16T07:50:49;17.60;99.90
10583;DHT22;33679;51.218;6.786;2022-10-16T07:53:16;17.70;99.90
10583;DHT22;33679;51.218;6.786;2022-10-16T07:55:46;17.70;99.90
10583;DHT22;33679;51.218;6.786;2022-10-16T07:58:13;17.70;99.90
10583;DHT22;33679;51.218;6.786;2022-10-16T08:00:41;17.70;99.90
10583;DHT22;33679;51.218;6.786;2022-10-16T08:03:09;17.70;99.90
10583;DHT22;33679;51.218;6.786;2022-10-16T08:05:36;17.80;99.90
10583;DHT22;33679;51.218;6.786;2022-10-16T08:08:03;17.70;99.90
10583;DHT22;33679;51.218;6.786;2022-10-16T08:10:30;17.80;99.90
10583;DHT22;33679;51.218;6.786;2022-10-16T08:12:58;17.90;99.90
10583;DHT22;33679;51.218;6.786;2022-10-16T08:15:25;17.90;99.90
10583;DHT22;33679;51.218;6.786;2022-10-16T08:17:59;17.90;99.90
10583;DHT22;33679;51.218;6.786;2022-10-16T08:20:28;18.00;99.90
10583;DHT22;33679;51.218;6.786;2022-10-16T08:22:59;18.00;99.90
10583;DHT22;33679;51.218;6.786;2022-10-16T08:25:26;18.10;99.90
10583;DHT22;33679;51.218;6.786;2022-10-16T08:27:54;18.10;99.90
10583;DHT22;33679;51.218;6.786;2022-10-16T08:30:22;18.20;99.90
10583;DHT22;33679;51.218;6.786;2022-10-16T08:32:52;18.20;99.90
10583;DHT22;33679;51.218;6.786;2022-10-16T08:35:21;18.20;99.90
10583;DHT22;33679;51.218;6.786;2022-10-16T08:37:48;18.30;99.90
10583;DHT22;33679;51.218;6.786;2022-10-16T08:40:18;18.30;99.90
10583;DHT22;33679;51.218;6.786;2022-10-16T08:43:17;18.40;99.90
10583;DHT22;33679;51.218;6.786;2022-10-16T08:46:10;18.40;99.90
10583;DHT22;33679;51.218;6.786;2022-10-16T08:48:45;18.40;99.90
10583;DHT22;33679;51.218;6.786;2022-10-16T08:51:20;18.40;99.90
10583;DHT22;33679;51.218;6.786;2022-10-16T08:53:52;18.50;99.90
10583;DHT22;33679;51.218;6.786;2022-10-16T08:56:21;18.50;99.90
10583;DHT22;33679;51.218;6.786;2022-10-16T08:58:49;18.60;99.90
10583;DHT22;33679;51.218;6.786;2022-10-16T09:01:19;18.60;99.90
10583;DHT22;33679;51.218;6.786;2022-10-16T09:04:04;18.70;99.90
10583;DHT22;33679;51.218;6.786;2022-10-16T09:06:44;18.70;99.90
10583;DHT22;33679;51.218;6.786;2022-10-16T09:09:30;18.70;99.90
10583;DHT22;33679;51.218;6.786;2022-10-16T09:12:04;18.80;99.90
10583;DHT22;33679;51.218;6.786;2022-10-16T09:14:58;18.80;99.90
10583;DHT22;33679;51.218;6.786;2022-10-16T09:17:37;18.90;99.90
10583;DHT22;33679;51.218;6.786;2022-10-16T09:20:25;18.90;99.90
10583;DHT22;33679;51.218;6.786;2022-10-16T09:23:08;18.90;99.90
10583;DHT22;33679;51.218;6.786;2022-10-16T09:25:39;18.90;99.90
10583;DHT22;33679;51.218;6.786;2022-10-16T09:28:08;18.90;99.90
10583;DHT22;33679;51.218;6.786;2022-10-16T09:30:37;18.90;99.90
10583;DHT22;33679;51.218;6.786;2022-10-16T09:33:05;19.00;99.90
10583;DHT22;33679;51.218;6.786;2022-10-16T09:35:37;19.10;99.90
10583;DHT22;33679;51.218;6.786;2022-10-16T09:38:20;19.10;99.90
10583;DHT22;33679;51.218;6.786;2022-10-16T09:40:51;19.20;99.90
10583;DHT22;33679;51.218;6.786;2022-10-16T09:43:23;19.20;99.90
10583;DHT22;33679;51.218;6.786;2022-10-16T09:45:54;19.20;99.90
10583;DHT22;33679;51.218;6.786;2022-10-16T09:48:27;19.30;99.90
10583;DHT22;33679;51.218;6.786;2022-10-16T09:50:57;19.30;99.90
10583;DHT22;33679;51.218;6.786;2022-10-16T09:53:40;19.30;99.90
10583;DHT22;33679;51.218;6.786;2022-10-16T09:56:10;19.40;99.90
10583;DHT22;33679;51.218;6.786;2022-10-16T09:58:49;19.40;99.90
10583;DHT22;33679;51.218;6.786;2022-10-16T10:01:16;19.50;99.90
10583;DHT22;33679;51.218;6.786;2022-10-16T10:03:56;19.50;99.90
10583;DHT22;33679;51.218;6.786;2022-10-16T10:06:34;19.70;99.90
10583;DHT22;33679;51.218;6.786;2022-10-16T10:09:20;19.60;99.90
10583;DHT22;33679;51.218;6.786;2022-10-16T10:11:53;19.70;99.90
10583;DHT22;33679;51.218;6.786;2022-10-16T10:14:36;19.70;99.90
10583;DHT22;33679;51.218;6.786;2022-10-16T10:17:14;19.70;99.90
10583;DHT22;33679;51.218;6.786;2022-10-16T10:20:21;19.80;99.90
10583;DHT22;33679;51.218;6.786;2022-10-16T10:22:50;19.90;99.90
10583;DHT22;33679;51.218;6.786;2022-10-16T10:25:39;19.80;99.90
10583;DHT22;33679;51.218;6.786;2022-10-16T10:28:38;19.90;99.90
10583;DHT22;33679;51.218;6.786;2022-10-16T10:31:17;19.90;99.90
10583;DHT22;33679;51.218;6.786;2022-10-16T10:33:55;20.00;99.90
10583;DHT22;33679;51.218;6.786;2022-10-16T10:36:36;20.00;99.90
10583;DHT22;33679;51.218;6.786;2022-10-16T10:39:07;20.10;99.90
10583;DHT22;33679;51.218;6.786;2022-10-16T10:42:10;20.10;99.90
10583;DHT22;33679;51.218;6.786;2022-10-16T10:45:18;20.20;99.90
10583;DHT22;33679;51.218;6.786;2022-10-16T10:51:03;20.30;99.90
10583;DHT22;33679;51.218;6.786;2022-10-16T10:53:39;20.40;99.90
10583;DHT22;33679;51.218;6.786;2022-10-16T10:56:20;20.40;99.90
10583;DHT22;33679;51.218;6.786;2022-10-16T10:59:26;20.40;99.90
10583;DHT22;33679;51.218;6.786;2022-10-16T11:01:58;20.40;99.90
10583;DHT22;33679;51.218;6.786;2022-10-16T11:07:31;20.30;99.90
10583;DHT22;33679;51.218;6.786;2022-10-16T11:10:03;20.20;99.90
10583;DHT22;33679;51.218;6.786;2022-10-16T11:12:36;20.20;99.90
10583;DHT22;33679;51.218;6.786;2022-10-16T11:15:13;20.20;99.90
10583;DHT22;33679;51.218;6.786;2022-10-16T11:17:44;20.20;99.90
10583;DHT22;33679;51.218;6.786;2022-10-16T11:20:19;20.20;99.90
10583;DHT22;33679;51.218;6.786;2022-10-16T11:22:53;20.20;99.90
10583;DHT22;33679;51.218;6.786;2022-10-16T11:25:26;20.20;99.90
10583;DHT22;33679;51.218;6.786;2022-10-16T11:27:59;20.20;99.90
10583;DHT22;33679;51.218;6.786;2022-10-16T11:30:31;20.20;99.90
10583;DHT22;33679;51.218;6.786;2022-10-16T11:33:08;20.20;99.90
10583;DHT22;33679;51.218;6.786;2022-10-16T11:35:43;20.30;99.90
10583;DHT22;33679;51.218;6.786;2022-10-16T11:38:15;20.30;99.90
10583;DHT22;33679;51.218;6.786;2022-10-16T11:40:52;20.30;99.90
10583;DHT22;33679;51.218;6.786;2022-10-16T11:43:26;20.40;99.90
10583;DHT22;33679;51.218;6.786;2022-10-16T11:46:02;20.40;99.90
10583;DHT22;33679;51.218;6.786;2022-10-16T11:48:35;20.60;99.90
10583;DHT22;33679;51.218;6.786;2022-10-16T11:51:11;20.60;99.90
10583;DHT22;33679;51.218;6.786;2022-10-16T11:53:48;20.60;99.90
10583;DHT22;33679;51.218;6.786;2022-10-16T11:56:20;20.60;99.90
10583;DHT22;33679;51.218;6.786;2022-10-16T11:58:56;20.60;99.90
10583;DHT22;33679;51.218;6.786;2022-10-16T12:01:32;20.60;99.90
10583;DHT22;33679;51.218;6.786;2022-10-16T12:04:11;20.60;99.90
10583;DHT22;33679;51.218;6.786;2022-10-16T12:06:42;20.70;99.90
10583;DHT22;33679;51.218;6.786;2022-10-16T12:09:16;20.60;99.90
10583;DHT22;33679;51.218;6.786;2022-10-16T12:11:52;20.60;99.90
10583;DHT22;33679;51.218;6.786;2022-10-16T12:14:33;20.80;99.90
10583;DHT22;33679;51.218;6.786;2022-10-16T12:17:04;20.80;99.90
10583;DHT22;33679;51.218;6.786;2022-10-16T12:19:58;20.90;99.90
10583;DHT22;33679;51.218;6.786;2022-10-16T12:22:28;21.00;99.90
10583;DHT22;33679;51.218;6.786;2022-10-16T12:24:57;21.00;99.90
10583;DHT22;33679;51.218;6.786;2022-10-16T12:27:28;20.90;99.90
10583;DHT22;33679;51.218;6.786;2022-10-16T12:29:58;21.00;99.90
10583;DHT22;33679;51.218;6.786;2022-10-16T12:32:35;21.10;99.90
10583;DHT22;33679;51.218;6.786;2022-10-16T12:35:16;21.10;99.90
10583;DHT22;33679;51.218;6.786;2022-10-16T12:37:45;21.10;99.90
10583;DHT22;33679;51.218;6.786;2022-10-16T12:40:15;21.20;99.90
10583;DHT22;33679;51.218;6.786;2022-10-16T12:42:48;21.20;99.90
10583;DHT22;33679;51.218;6.786;2022-10-16T12:45:35;21.30;99.90
10583;DHT22;33679;51.218;6.786;2022-10-16T12:48:21;21.40;99.90
10583;DHT22;33679;51.218;6.786;2022-10-16T12:50:52;21.60;99.90
10583;DHT22;33679;51.218;6.786;2022-10-16T12:53:21;21.60;99.90
10583;DHT22;33679;51.218;6.786;2022-10-16T12:56:04;21.70;99.90
10583;DHT22;33679;51.218;6.786;2022-10-16T12:58:56;21.80;99.90
10583;DHT22;33679;51.218;6.786;2022-10-16T13:01:39;21.80;99.90
10583;DHT22;33679;51.218;6.786;2022-10-16T13:04:28;21.80;99.90
10583;DHT22;33679;51.218;6.786;2022-10-16T13:07:29;21.80;99.90
10583;DHT22;33679;51.218;6.786;2022-10-16T13:10:13;21.90;99.90
10583;DHT22;33679;51.218;6.786;2022-10-16T13:13:20;21.80;99.90
10583;DHT22;33679;51.218;6.786;2022-10-16T13:16:09;21.90;99.90
10583;DHT22;33679;51.218;6.786;2022-10-16T13:19:01;21.80;99.90
10583;DHT22;33679;51.218;6.786;2022-10-16T13:21:41;21.80;99.90
10583;DHT22;33679;51.218;6.786;2022-10-16T13:24:19;21.80;99.90
10583;DHT22;33679;51.218;6.786;2022-10-16T13:26:55;21.80;99.90
10583;DHT22;33679;51.218;6.786;2022-10-16T13:29:30;21.80;99.90
10583;DHT22;33679;51.218;6.786;2022-10-16T13:31:58;21.80;99.90
10583;DHT22;33679;51.218;6.786;2022-10-16T13:34:26;21.80;99.90
10583;DHT22;33679;51.218;6.786;2022-10-16T13:36:56;21.80;99.90
10583;DHT22;33679;51.218;6.786;2022-10-16T13:39:25;21.80;99.90
10583;DHT22;33679;51.218;6.786;2022-10-16T13:42:02;21.80;99.90
10583;DHT22;33679;51.218;6.786;2022-10-16T13:44:36;21.80;99.90
10583;DHT22;33679;51.218;6.786;2022-10-16T13:47:04;21.90;99.90
10583;DHT22;33679;51.218;6.786;2022-10-16T13:49:31;21.90;99.90
10583;DHT22;33679;51.218;6.786;2022-10-16T13:52:00;22.00;99.90
10583;DHT22;33679;51.218;6.786;2022-10-16T13:54:28;22.10;99.90
10583;DHT22;33679;51.218;6.786;2022-10-16T13:57:14;22.10;99.90
10583;DHT22;33679;51.218;6.786;2022-10-16T13:59:42;22.10;99.90
10583;DHT22;33679;51.218;6.786;2022-10-16T14:02:20;22.20;99.90
10583;DHT22;33679;51.218;6.786;2022-10-16T14:04:49;22.20;99.90
10583;DHT22;33679;51.218;6.786;2022-10-16T14:07:23;22.20;99.90
10583;DHT22;33679;51.218;6.786;2022-10-16T14:09:52;22.20;99.90
10583;DHT22;33679;51.218;6.786;2022-10-16T14:12:22;22.20;99.90
10583;DHT22;33679;51.218;6.786;2022-10-16T14:14:53;22.10;99.90
10583;DHT22;33679;51.218;6.786;2022-10-16T14:17:25;22.20;99.90
10583;DHT22;33679;51.218;6.786;2022-10-16T14:19:56;22.20;99.90
10583;DHT22;33679;51.218;6.786;2022-10-16T14:25:38;22.10;99.90
10583;DHT22;33679;51.218;6.786;2022-10-16T14:28:15;22.10;99.90
10583;DHT22;33679;51.218;6.786;2022-10-16T14:30:51;22.10;99.90
10583;DHT22;33679;51.218;6.786;2022-10-16T14:33:22;22.10;99.90
10583;DHT22;33679;51.218;6.786;2022-10-16T14:36:01;22.10;99.90
10583;DHT22;33679;51.218;6.786;2022-10-16T14:38:31;22.10;99.90
10583;DHT22;33679;51.218;6.786;2022-10-16T14:41:00;22.10;99.90
10583;DHT22;33679;51.218;6.786;2022-10-16T14:43:49;22.10;99.90
10583;DHT22;33679;51.218;6.786;2022-10-16T14:46:19;22.10;99.90
10583;DHT22;33679;51.218;6.786;2022-10-16T14:48:51;22.10;99.90
10583;DHT22;33679;51.218;6.786;2022-10-16T14:51:21;22.00;99.90
10583;DHT22;33679;51.218;6.786;2022-10-16T14:53:51;22.00;99.90
10583;DHT22;33679;51.218;6.786;2022-10-16T14:56:22;22.00;99.90
10583;DHT22;33679;51.218;6.786;2022-10-16T14:58:50;22.00;99.90
10583;DHT22;33679;51.218;6.786;2022-10-16T15:01:18;21.90;99.90
10583;DHT22;33679;51.218;6.786;2022-10-16T15:03:49;21.90;99.90
10583;DHT22;33679;51.218;6.786;2022-10-16T15:06:18;21.90;99.90
10583;DHT22;33679;51.218;6.786;2022-10-16T15:08:47;21.90;99.90
10583;DHT22;33679;51.218;6.786;2022-10-16T15:11:17;21.90;99.90
10583;DHT22;33679;51.218;6.786;2022-10-16T15:13:46;21.90;99.90
10583;DHT22;33679;51.218;6.786;2022-10-16T15:16:16;21.90;99.90
10583;DHT22;33679;51.218;6.786;2022-10-16T15:18:44;21.90;99.90
10583;DHT22;33679;51.218;6.786;2022-10-16T15:21:21;21.90;99.90
10583;DHT22;33679;51.218;6.786;2022-10-16T15:23:50;21.80;99.90
10583;DHT22;33679;51.218;6.786;2022-10-16T15:26:17;21.80;99.90
10583;DHT22;33679;51.218;6.786;2022-10-16T15:28:48;21.80;99.90
10583;DHT22;33679;51.218;6.786;2022-10-16T15:31:17;21.80;99.90
10583;DHT22;33679;51.218;6.786;2022-10-16T15:33:45;21.70;99.90
10583;DHT22;33679;51.218;6.786;2022-10-16T15:36:25;21.70;99.90
10583;DHT22;33679;51.218;6.786;2022-10-16T15:38:52;21.70;99.90
10583;DHT22;33679;51.218;6.786;2022-10-16T15:41:20;21.70;99.90
10583;DHT22;33679;51.218;6.786;2022-10-16T15:43:52;21.70;99.90
10583;DHT22;33679;51.218;6.786;2022-10-16T15:46:21;21.70;99.90
10583;DHT22;33679;51.218;6.786;2022-10-16T15:48:50;21.70;99.90
10583;DHT22;33679;51.218;6.786;2022-10-16T15:51:18;21.60;99.90
10583;DHT22;33679;51.218;6.786;2022-10-16T15:53:46;21.60;99.90
10583;DHT22;33679;51.218;6.786;2022-10-16T15:56:14;21.60;99.90
10583;DHT22;33679;51.218;6.786;2022-10-16T15:58:42;21.60;99.90
10583;DHT22;33679;51.218;6.786;2022-10-16T16:01:11;21.50;99.90
10583;DHT22;33679;51.218;6.786;2022-10-16T16:03:42;21.50;99.90
10583;DHT22;33679;51.218;6.786;2022-10-16T16:06:12;21.50;99.90
10583;DHT22;33679;51.218;6.786;2022-10-16T16:08:40;21.50;99.90
10583;DHT22;33679;51.218;6.786;2022-10-16T16:11:09;21.50;99.90